sensor_id;sensor_type;location;lat;lon;timestamp;temperature;humidity
9437;DHT22;4757;59.334;18.034;2023-09-19T00:00:39;16.60;99.90
9437;DHT22;4757;59.334;18.034;2023-09-19T00:03:09;16.60;99.90
9437;DHT22;4757;59.334;18.034;2023-09-19T00:05:38;16.60;99.90
9437;DHT22;4757;59.334;18.034;2023-09-19T00:08:07;16.30;99.90
9437;DHT22;4757;59.334;18.034;2023-09-19T00:10:35;16.50;99.90
9437;DHT22;4757;59.334;18.034;2023-09-19T00:13:03;16.70;99.90
9437;DHT22;4757;59.334;18.034;2023-09-19T00:15:45;16.80;99.90
9437;DHT22;4757;59.334;18.034;2023-09-19T00:18:20;16.70;99.90
9437;DHT22;4757;59.334;18.034;2023-09-19T00:20:51;16.70;99.90
9437;DHT22;4757;59.334;18.034;2023-09-19T00:23:19;16.60;99.90
9437;DHT22;4757;59.334;18.034;2023-09-19T00:25:47;16.80;99.90
9437;DHT22;4757;59.334;18.034;2023-09-19T00:28:15;16.80;99.90
9437;DHT22;4757;59.334;18.034;2023-09-19T00:30:45;16.80;99.90
9437;DHT22;4757;59.334;18.034;2023-09-19T00:33:12;16.90;99.90
9437;DHT22;4757;59.334;18.034;2023-09-19T00:35:54;16.90;99.90
9437;DHT22;4757;59.334;18.034;2023-09-19T00:38:22;16.90;99.90
9437;DHT22;4757;59.334;18.034;2023-09-19T00:40:54;16.90;99.90
9437;DHT22;4757;59.334;18.034;2023-09-19T00:43:26;17.00;99.90
9437;DHT22;4757;59.334;18.034;2023-09-19T00:45:56;17.00;99.90
9437;DHT22;4757;59.334;18.034;2023-09-19T00:48:24;17.00;99.90
9437;DHT22;4757;59.334;18.034;2023-09-19T00:50:59;17.00;99.90
9437;DHT22;4757;59.334;18.034;2023-09-19T00:53:31;17.30;99.90
9437;DHT22;4757;59.334;18.034;2023-09-19T00:55:58;17.20;99.90
9437;DHT22;4757;59.334;18.034;2023-09-19T00:58:26;17.10;99.90
9437;DHT22;4757;59.334;18.034;2023-09-19T01:00:59;17.20;99.90
9437;DHT22;4757;59.334;18.034;2023-09-19T01:03:27;17.20;99.90
9437;DHT22;4757;59.334;18.034;2023-09-19T01:05:54;17.20;99.90
9437;DHT22;4757;59.334;18.034;2023-09-19T01:08:22;17.20;99.90
9437;DHT22;4757;59.334;18.034;2023-09-19T01:10:56;17.20;99.90
9437;DHT22;4757;59.334;18.034;2023-09-19T01:13:35;17.30;99.90
9437;DHT22;4757;59.334;18.034;2023-09-19T01:16:32;17.20;99.90
9437;DHT22;4757;59.334;18.034;2023-09-19T01:22:42;17.20;99.90
9437;DHT22;4757;59.334;18.034;2023-09-19T01:25:39;17.10;99.90
9437;DHT22;4757;59.334;18.034;2023-09-19T01:31:21;17.20;99.90
9437;DHT22;4757;59.334;18.034;2023-09-19T01:33:59;17.30;99.90
9437;DHT22;4757;59.334;18.034;2023-09-19T01:36:36;17.20;99.90
9437;DHT22;4757;59.334;18.034;2023-09-19T01:39:08;17.20;99.90
9437;DHT22;4757;59.334;18.034;2023-09-19T01:42:01;17.40;99.90
9437;DHT22;4757;59.334;18.034;2023-09-19T01:47:37;17.30;99.90
9437;DHT22;4757;59.334;18.034;2023-09-19T01:50:30;17.30;99.90
9437;DHT22;4757;59.334;18.034;2023-09-19T01:53:21;17.40;99.90
9437;DHT22;4757;59.334;18.034;2023-09-19T01:55:51;17.60;99.90
9437;DHT22;4757;59.334;18.034;2023-09-19T02:00:58;17.30;99.90
9437;DHT22;4757;59.334;18.034;2023-09-19T02:03:27;17.40;99.90
9437;DHT22;4757;59.334;18.034;2023-09-19T02:05:55;17.40;99.90
9437;DHT22;4757;59.334;18.034;2023-09-19T02:08:23;17.40;99.90
9437;DHT22;4757;59.334;18.034;2023-09-19T02:10:51;17.30;99.90
9437;DHT22;4757;59.334;18.034;2023-09-19T02:13:21;17.40;99.90
9437;DHT22;4757;59.334;18.034;2023-09-19T02:15:51;17.30;99.90
9437;DHT22;4757;59.334;18.034;2023-09-19T02:18:18;17.20;99.90
9437;DHT22;4757;59.334;18.034;2023-09-19T02:20:46;17.30;99.90
9437;DHT22;4757;59.334;18.034;2023-09-19T02:23:14;17.30;99.90
9437;DHT22;4757;59.334;18.034;2023-09-19T02:25:42;17.30;99.90
9437;DHT22;4757;59.334;18.034;2023-09-19T02:28:12;17.30;99.90
9437;DHT22;4757;59.334;18.034;2023-09-19T02:30:40;17.30;99.90
9437;DHT22;4757;59.334;18.034;2023-09-19T02:33:07;17.50;99.90
9437;DHT22;4757;59.334;18.034;2023-09-19T02:35:35;17.30;99.90
9437;DHT22;4757;59.334;18.034;2023-09-19T02:38:03;17.30;99.90
9437;DHT22;4757;59.334;18.034;2023-09-19T02:40:33;17.10;99.90
9437;DHT22;4757;59.334;18.034;2023-09-19T02:43:03;17.30;99.90
9437;DHT22;4757;59.334;18.034;2023-09-19T02:45:31;17.40;99.90
9437;DHT22;4757;59.334;18.034;2023-09-19T02:47:59;17.40;99.90
9437;DHT22;4757;59.334;18.034;2023-09-19T02:50:26;17.40;99.90
9437;DHT22;4757;59.334;18.034;2023-09-19T02:52:53;17.40;99.90
9437;DHT22;4757;59.334;18.034;2023-09-19T02:55:21;17.40;99.90
9437;DHT22;4757;59.334;18.034;2023-09-19T02:57:50;17.40;99.90
9437;DHT22;4757;59.334;18.034;2023-09-19T03:00:21;17.40;99.90
9437;DHT22;4757;59.334;18.034;2023-09-19T03:02:53;17.40;99.90
9437;DHT22;4757;59.334;18.034;2023-09-19T03:05:23;17.40;99.90
9437;DHT22;4757;59.334;18.034;2023-09-19T03:07:51;17.40;99.90
9437;DHT22;4757;59.334;18.034;2023-09-19T03:10:19;17.70;99.90
9437;DHT22;4757;59.334;18.034;2023-09-19T03:12:48;17.50;99.90
9437;DHT22;4757;59.334;18.034;2023-09-19T03:15:15;17.40;99.90
9437;DHT22;4757;59.334;18.034;2023-09-19T03:17:44;17.30;99.90
9437;DHT22;4757;59.334;18.034;2023-09-19T03:20:12;17.40;99.90
9437;DHT22;4757;59.334;18.034;2023-09-19T03:22:45;17.40;99.90
9437;DHT22;4757;59.334;18.034;2023-09-19T03:25:12;17.30;99.90
9437;DHT22;4757;59.334;18.034;2023-09-19T03:27:41;17.30;99.90
9437;DHT22;4757;59.334;18.034;2023-09-19T03:30:09;17.30;99.90
9437;DHT22;4757;59.334;18.034;2023-09-19T03:32:36;17.20;99.90
9437;DHT22;4757;59.334;18.034;2023-09-19T03:35:04;17.20;99.90
9437;DHT22;4757;59.334;18.034;2023-09-19T03:37:34;17.20;99.90
9437;DHT22;4757;59.334;18.034;2023-09-19T03:40:02;17.20;99.90
9437;DHT22;4757;59.334;18.034;2023-09-19T03:42:32;17.20;99.90
9437;DHT22;4757;59.334;18.034;2023-09-19T03:44:59;17.10;99.90
9437;DHT22;4757;59.334;18.034;2023-09-19T03:47:27;17.10;99.90
9437;DHT22;4757;59.334;18.034;2023-09-19T03:49:55;17.10;99.90
9437;DHT22;4757;59.334;18.034;2023-09-19T03:52:28;17.10;99.90
9437;DHT22;4757;59.334;18.034;2023-09-19T03:54:55;17.10;99.90
9437;DHT22;4757;59.334;18.034;2023-09-19T03:57:22;17.20;99.90
9437;DHT22;4757;59.334;18.034;2023-09-19T03:59:50;17.20;99.90
9437;DHT22;4757;59.334;18.034;2023-09-19T04:02:20;17.20;99.90
9437;DHT22;4757;59.334;18.034;2023-09-19T04:04:52;17.20;99.90
9437;DHT22;4757;59.334;18.034;2023-09-19T04:07:21;17.20;99.90
9437;DHT22;4757;59.334;18.034;2023-09-19T04:09:49;17.20;99.90
9437;DHT22;4757;59.334;18.034;2023-09-19T04:12:17;17.20;99.90
9437;DHT22;4757;59.334;18.034;2023-09-19T04:14:46;17.00;99.90
9437;DHT22;4757;59.334;18.034;2023-09-19T04:17:14;17.20;99.90
9437;DHT22;4757;59.334;18.034;2023-09-19T04:19:41;17.30;99.90
9437;DHT22;4757;59.334;18.034;2023-09-19T04:22:08;17.10;99.90
9437;DHT22;4757;59.334;18.034;2023-09-19T04:24:37;17.20;99.90
9437;DHT22;4757;59.334;18.034;2023-09-19T04:27:05;16.90;99.90
9437;DHT22;4757;59.334;18.034;2023-09-19T04:29:33;17.10;99.90
9437;DHT22;4757;59.334;18.034;2023-09-19T04:32:01;17.10;99.90
9437;DHT22;4757;59.334;18.034;2023-09-19T04:34:33;17.20;99.90
9437;DHT22;4757;59.334;18.034;2023-09-19T04:37:01;16.90;99.90
9437;DHT22;4757;59.334;18.034;2023-09-19T04:39:28;17.10;99.90
9437;DHT22;4757;59.334;18.034;2023-09-19T04:41:56;17.20;99.90
9437;DHT22;4757;59.334;18.034;2023-09-19T04:44:24;17.20;99.90
9437;DHT22;4757;59.334;18.034;2023-09-19T04:46:51;17.20;99.90
9437;DHT22;4757;59.334;18.034;2023-09-19T04:49:18;17.00;99.90
9437;DHT22;4757;59.334;18.034;2023-09-19T04:51:46;17.50;99.90
9437;DHT22;4757;59.334;18.034;2023-09-19T04:54:14;17.30;99.90
9437;DHT22;4757;59.334;18.034;2023-09-19T04:56:42;17.30;99.90
9437;DHT22;4757;59.334;18.034;2023-09-19T04:59:11;17.20;99.90
9437;DHT22;4757;59.334;18.034;2023-09-19T05:01:39;17.20;99.90
9437;DHT22;4757;59.334;18.034;2023-09-19T05:04:06;17.50;99.90
9437;DHT22;4757;59.334;18.034;2023-09-19T05:06:33;17.30;99.90
9437;DHT22;4757;59.334;18.034;2023-09-19T05:09:01;17.40;99.90
9437;DHT22;4757;59.334;18.034;2023-09-19T05:11:32;17.40;99.90
9437;DHT22;4757;59.334;18.034;2023-09-19T05:14:01;17.30;99.90
9437;DHT22;4757;59.334;18.034;2023-09-19T05:16:31;17.50;99.90
9437;DHT22;4757;59.334;18.034;2023-09-19T05:18:59;17.30;99.90
9437;DHT22;4757;59.334;18.034;2023-09-19T05:21:29;17.80;99.90
9437;DHT22;4757;59.334;18.034;2023-09-19T05:23:57;17.30;99.90
9437;DHT22;4757;59.334;18.034;2023-09-19T05:26:25;17.60;99.90
9437;DHT22;4757;59.334;18.034;2023-09-19T05:28:52;17.70;99.90
9437;DHT22;4757;59.334;18.034;2023-09-19T05:33:53;17.30;99.90
9437;DHT22;4757;59.334;18.034;2023-09-19T05:36:24;17.60;99.90
9437;DHT22;4757;59.334;18.034;2023-09-19T05:38:52;17.30;99.90
9437;DHT22;4757;59.334;18.034;2023-09-19T05:41:24;17.40;99.90
9437;DHT22;4757;59.334;18.034;2023-09-19T05:43:52;17.30;99.90
9437;DHT22;4757;59.334;18.034;2023-09-19T05:46:19;17.40;99.90
9437;DHT22;4757;59.334;18.034;2023-09-19T05:48:47;16.40;99.90
9437;DHT22;4757;59.334;18.034;2023-09-19T05:51:15;17.50;99.90
9437;DHT22;4757;59.334;18.034;2023-09-19T05:53:55;17.50;99.90
9437;DHT22;4757;59.334;18.034;2023-09-19T05:56:27;17.50;99.90
9437;DHT22;4757;59.334;18.034;2023-09-19T05:58:57;17.60;99.90
9437;DHT22;4757;59.334;18.034;2023-09-19T06:01:24;18.10;99.90
9437;DHT22;4757;59.334;18.034;2023-09-19T06:03:52;17.80;99.90
9437;DHT22;4757;59.334;18.034;2023-09-19T06:06:23;18.00;99.90
9437;DHT22;4757;59.334;18.034;2023-09-19T06:09:07;18.00;99.90
9437;DHT22;4757;59.334;18.034;2023-09-19T06:11:49;18.20;99.90
9437;DHT22;4757;59.334;18.034;2023-09-19T06:14:20;17.90;99.90
9437;DHT22;4757;59.334;18.034;2023-09-19T06:16:49;18.70;99.90
9437;DHT22;4757;59.334;18.034;2023-09-19T06:19:18;17.60;99.90
9437;DHT22;4757;59.334;18.034;2023-09-19T06:21:46;17.70;99.90
9437;DHT22;4757;59.334;18.034;2023-09-19T06:24:15;17.80;99.90
9437;DHT22;4757;59.334;18.034;2023-09-19T06:26:56;17.80;99.90
9437;DHT22;4757;59.334;18.034;2023-09-19T06:29:25;17.80;99.90
9437;DHT22;4757;59.334;18.034;2023-09-19T06:31:55;17.80;99.90
9437;DHT22;4757;59.334;18.034;2023-09-19T06:34:25;17.90;99.90
9437;DHT22;4757;59.334;18.034;2023-09-19T06:37:07;17.80;99.90
9437;DHT22;4757;59.334;18.034;2023-09-19T06:39:49;17.80;99.90
9437;DHT22;4757;59.334;18.034;2023-09-19T06:42:20;17.80;99.90
9437;DHT22;4757;59.334;18.034;2023-09-19T06:44:49;17.50;99.90
9437;DHT22;4757;59.334;18.034;2023-09-19T06:47:17;17.90;99.90
9437;DHT22;4757;59.334;18.034;2023-09-19T06:52:15;17.90;99.90
9437;DHT22;4757;59.334;18.034;2023-09-19T06:54:46;17.90;99.90
9437;DHT22;4757;59.334;18.034;2023-09-19T06:57:20;17.90;99.90
9437;DHT22;4757;59.334;18.034;2023-09-19T06:59:48;17.90;99.90
9437;DHT22;4757;59.334;18.034;2023-09-19T07:02:16;20.40;99.90
9437;DHT22;4757;59.334;18.034;2023-09-19T07:04:52;17.80;99.90
9437;DHT22;4757;59.334;18.034;2023-09-19T07:07:27;17.90;99.90
9437;DHT22;4757;59.334;18.034;2023-09-19T07:09:56;17.90;99.90
9437;DHT22;4757;59.334;18.034;2023-09-19T07:12:25;17.90;99.90
9437;DHT22;4757;59.334;18.034;2023-09-19T07:14:54;17.80;99.90
9437;DHT22;4757;59.334;18.034;2023-09-19T07:17:30;15.00;99.90
9437;DHT22;4757;59.334;18.034;2023-09-19T07:20:03;17.90;99.90
9437;DHT22;4757;59.334;18.034;2023-09-19T07:22:39;17.80;99.90
9437;DHT22;4757;59.334;18.034;2023-09-19T07:25:07;17.70;99.90
9437;DHT22;4757;59.334;18.034;2023-09-19T07:27:46;17.70;99.90
9437;DHT22;4757;59.334;18.034;2023-09-19T07:30:15;17.70;99.90
9437;DHT22;4757;59.334;18.034;2023-09-19T07:32:52;17.60;99.90
9437;DHT22;4757;59.334;18.034;2023-09-19T07:35:25;17.70;99.90
9437;DHT22;4757;59.334;18.034;2023-09-19T07:37:53;17.70;99.90
9437;DHT22;4757;59.334;18.034;2023-09-19T07:40:26;17.70;99.90
9437;DHT22;4757;59.334;18.034;2023-09-19T07:43:07;17.60;99.90
9437;DHT22;4757;59.334;18.034;2023-09-19T07:45:37;17.80;99.90
9437;DHT22;4757;59.334;18.034;2023-09-19T07:48:07;17.80;99.90
9437;DHT22;4757;59.334;18.034;2023-09-19T07:50:41;17.80;99.90
9437;DHT22;4757;59.334;18.034;2023-09-19T07:53:13;17.90;99.90
9437;DHT22;4757;59.334;18.034;2023-09-19T07:55:45;17.70;99.90
9437;DHT22;4757;59.334;18.034;2023-09-19T07:58:15;17.90;99.90
9437;DHT22;4757;59.334;18.034;2023-09-19T08:00:44;18.00;99.90
9437;DHT22;4757;59.334;18.034;2023-09-19T08:03:18;18.00;99.90
9437;DHT22;4757;59.334;18.034;2023-09-19T08:05:46;18.00;99.90
9437;DHT22;4757;59.334;18.034;2023-09-19T08:08:16;18.00;99.90
9437;DHT22;4757;59.334;18.034;2023-09-19T08:10:43;17.70;99.90
9437;DHT22;4757;59.334;18.034;2023-09-19T08:13:15;18.10;99.90
9437;DHT22;4757;59.334;18.034;2023-09-19T08:15:44;18.10;99.90
9437;DHT22;4757;59.334;18.034;2023-09-19T08:18:17;18.20;99.90
9437;DHT22;4757;59.334;18.034;2023-09-19T08:20:50;18.40;99.90
9437;DHT22;4757;59.334;18.034;2023-09-19T08:23:18;18.20;99.90
9437;DHT22;4757;59.334;18.034;2023-09-19T08:25:49;18.20;99.90
9437;DHT22;4757;59.334;18.034;2023-09-19T08:28:20;18.30;99.90
9437;DHT22;4757;59.334;18.034;2023-09-19T08:30:51;19.30;99.90
9437;DHT22;4757;59.334;18.034;2023-09-19T08:33:21;18.20;99.90
9437;DHT22;4757;59.334;18.034;2023-09-19T08:35:49;18.30;99.90
9437;DHT22;4757;59.334;18.034;2023-09-19T08:38:24;18.40;99.90
9437;DHT22;4757;59.334;18.034;2023-09-19T08:41:10;18.10;99.90
9437;DHT22;4757;59.334;18.034;2023-09-19T08:43:45;18.40;99.90
9437;DHT22;4757;59.334;18.034;2023-09-19T08:46:23;18.40;99.90
9437;DHT22;4757;59.334;18.034;2023-09-19T08:49:04;17.20;99.90
9437;DHT22;4757;59.334;18.034;2023-09-19T08:51:43;18.50;99.90
9437;DHT22;4757;59.334;18.034;2023-09-19T08:54:25;18.50;99.90
9437;DHT22;4757;59.334;18.034;2023-09-19T08:57:00;19.70;99.90
9437;DHT22;4757;59.334;18.034;2023-09-19T08:59:32;18.60;99.90
9437;DHT22;4757;59.334;18.034;2023-09-19T09:02:02;18.80;99.90
9437;DHT22;4757;59.334;18.034;2023-09-19T09:04:31;18.90;99.90
9437;DHT22;4757;59.334;18.034;2023-09-19T09:07:18;19.00;99.90
9437;DHT22;4757;59.334;18.034;2023-09-19T09:09:46;19.00;99.90
9437;DHT22;4757;59.334;18.034;2023-09-19T09:12:14;19.00;99.90
9437;DHT22;4757;59.334;18.034;2023-09-19T09:14:46;19.20;99.90
9437;DHT22;4757;59.334;18.034;2023-09-19T09:17:17;19.30;99.90
9437;DHT22;4757;59.334;18.034;2023-09-19T09:19:53;19.20;99.90
9437;DHT22;4757;59.334;18.034;2023-09-19T09:22:34;19.30;99.90
9437;DHT22;4757;59.334;18.034;2023-09-19T09:25:03;19.20;99.90
9437;DHT22;4757;59.334;18.034;2023-09-19T09:27:31;19.20;99.90
9437;DHT22;4757;59.334;18.034;2023-09-19T09:30:01;17.90;99.90
9437;DHT22;4757;59.334;18.034;2023-09-19T09:32:30;19.60;99.90
9437;DHT22;4757;59.334;18.034;2023-09-19T09:35:21;20.20;99.90
9437;DHT22;4757;59.334;18.034;2023-09-19T09:37:59;19.60;99.90
9437;DHT22;4757;59.334;18.034;2023-09-19T09:40:55;19.60;99.90
9437;DHT22;4757;59.334;18.034;2023-09-19T09:43:28;19.80;99.90
9437;DHT22;4757;59.334;18.034;2023-09-19T09:46:17;19.70;99.90
9437;DHT22;4757;59.334;18.034;2023-09-19T09:49:06;19.80;99.90
9437;DHT22;4757;59.334;18.034;2023-09-19T09:52:00;20.20;99.90
9437;DHT22;4757;59.334;18.034;2023-09-19T09:54:37;20.50;99.90
9437;DHT22;4757;59.334;18.034;2023-09-19T09:57:08;20.00;99.90
9437;DHT22;4757;59.334;18.034;2023-09-19T10:02:30;20.10;99.90
9437;DHT22;4757;59.334;18.034;2023-09-19T10:05:17;20.20;99.90
9437;DHT22;4757;59.334;18.034;2023-09-19T10:07:54;20.50;99.90
9437;DHT22;4757;59.334;18.034;2023-09-19T10:10:39;20.10;99.90
9437;DHT22;4757;59.334;18.034;2023-09-19T10:13:13;20.10;99.90
9437;DHT22;4757;59.334;18.034;2023-09-19T10:15:44;20.00;99.90
9437;DHT22;4757;59.334;18.034;2023-09-19T10:18:21;19.90;99.90
9437;DHT22;4757;59.334;18.034;2023-09-19T10:20:51;20.30;99.90
9437;DHT22;4757;59.334;18.034;2023-09-19T10:23:20;20.40;99.90
9437;DHT22;4757;59.334;18.034;2023-09-19T10:25:53;20.50;99.90
9437;DHT22;4757;59.334;18.034;2023-09-19T10:28:23;21.20;99.90
9437;DHT22;4757;59.334;18.034;2023-09-19T10:30:58;20.70;99.90
9437;DHT22;4757;59.334;18.034;2023-09-19T10:33:36;19.30;99.90
9437;DHT22;4757;59.334;18.034;2023-09-19T10:36:07;20.20;99.90
9437;DHT22;4757;59.334;18.034;2023-09-19T10:38:41;20.20;99.90
9437;DHT22;4757;59.334;18.034;2023-09-19T10:41:13;20.20;99.90
9437;DHT22;4757;59.334;18.034;2023-09-19T10:43:49;20.30;99.90
9437;DHT22;4757;59.334;18.034;2023-09-19T10:46:18;20.60;99.90
9437;DHT22;4757;59.334;18.034;2023-09-19T10:48:48;20.80;99.90
9437;DHT22;4757;59.334;18.034;2023-09-19T10:51:23;20.80;99.90
9437;DHT22;4757;59.334;18.034;2023-09-19T10:54:05;20.70;99.90
9437;DHT22;4757;59.334;18.034;2023-09-19T10:56:50;21.20;99.90
9437;DHT22;4757;59.334;18.034;2023-09-19T10:59:20;20.50;99.90
9437;DHT22;4757;59.334;18.034;2023-09-19T11:01:51;20.40;99.90
9437;DHT22;4757;59.334;18.034;2023-09-19T11:04:38;20.50;99.90
9437;DHT22;4757;59.334;18.034;2023-09-19T11:07:17;20.60;99.90
9437;DHT22;4757;59.334;18.034;2023-09-19T11:09:53;20.80;99.90
9437;DHT22;4757;59.334;18.034;2023-09-19T11:16:23;20.80;99.90
9437;DHT22;4757;59.334;18.034;2023-09-19T11:27:09;20.20;99.90
9437;DHT22;4757;59.334;18.034;2023-09-19T11:29:42;20.50;99.90
9437;DHT22;4757;59.334;18.034;2023-09-19T11:32:09;21.50;99.90
9437;DHT22;4757;59.334;18.034;2023-09-19T11:40:07;20.60;99.90
9437;DHT22;4757;59.334;18.034;2023-09-19T11:42:54;20.50;99.90
9437;DHT22;4757;59.334;18.034;2023-09-19T11:48:24;20.10;99.90
9437;DHT22;4757;59.334;18.034;2023-09-19T11:50:55;20.00;99.90
9437;DHT22;4757;59.334;18.034;2023-09-19T11:53:31;20.20;99.90
9437;DHT22;4757;59.334;18.034;2023-09-19T11:55:59;20.10;99.90
9437;DHT22;4757;59.334;18.034;2023-09-19T11:58:30;20.10;99.90
9437;DHT22;4757;59.334;18.034;2023-09-19T12:01:02;19.90;99.90
9437;DHT22;4757;59.334;18.034;2023-09-19T12:03:37;20.30;99.90
9437;DHT22;4757;59.334;18.034;2023-09-19T12:06:12;20.40;99.90
9437;DHT22;4757;59.334;18.034;2023-09-19T12:08:53;20.60;99.90
9437;DHT22;4757;59.334;18.034;2023-09-19T12:11:22;20.50;99.90
9437;DHT22;4757;59.334;18.034;2023-09-19T12:13:51;20.30;99.90
9437;DHT22;4757;59.334;18.034;2023-09-19T12:16:21;20.10;99.90
9437;DHT22;4757;59.334;18.034;2023-09-19T12:19:19;20.20;99.90
9437;DHT22;4757;59.334;18.034;2023-09-19T12:21:58;20.10;99.90
9437;DHT22;4757;59.334;18.034;2023-09-19T12:24:28;19.90;99.90
9437;DHT22;4757;59.334;18.034;2023-09-19T12:27:04;20.00;99.90
9437;DHT22;4757;59.334;18.034;2023-09-19T12:29:49;20.20;99.90
9437;DHT22;4757;59.334;18.034;2023-09-19T12:32:35;20.80;99.90
9437;DHT22;4757;59.334;18.034;2023-09-19T12:35:10;21.20;99.90
9437;DHT22;4757;59.334;18.034;2023-09-19T12:46:58;22.40;99.90
9437;DHT22;4757;59.334;18.034;2023-09-19T12:52:37;22.00;99.90
9437;DHT22;4757;59.334;18.034;2023-09-19T12:55:25;21.10;99.90
9437;DHT22;4757;59.334;18.034;2023-09-19T12:58:12;22.20;99.90
9437;DHT22;4757;59.334;18.034;2023-09-19T13:00:43;20.40;99.90
9437;DHT22;4757;59.334;18.034;2023-09-19T13:06:11;20.20;99.90
9437;DHT22;4757;59.334;18.034;2023-09-19T13:12:35;19.90;99.90
9437;DHT22;4757;59.334;18.034;2023-09-19T13:15:28;20.00;99.90
9437;DHT22;4757;59.334;18.034;2023-09-19T13:18:11;19.90;99.90
9437;DHT22;4757;59.334;18.034;2023-09-19T13:21:08;19.80;99.90
9437;DHT22;4757;59.334;18.034;2023-09-19T13:24:26;19.50;99.90
9437;DHT22;4757;59.334;18.034;2023-09-19T13:27:12;19.50;99.90
9437;DHT22;4757;59.334;18.034;2023-09-19T13:29:50;19.60;99.90
9437;DHT22;4757;59.334;18.034;2023-09-19T13:32:28;19.40;99.90
9437;DHT22;4757;59.334;18.034;2023-09-19T13:35:22;19.40;99.90
9437;DHT22;4757;59.334;18.034;2023-09-19T13:37:53;19.40;99.90
9437;DHT22;4757;59.334;18.034;2023-09-19T13:40:40;19.10;99.90
9437;DHT22;4757;59.334;18.034;2023-09-19T13:43:27;19.00;99.90
9437;DHT22;4757;59.334;18.034;2023-09-19T13:46:50;19.10;99.90
9437;DHT22;4757;59.334;18.034;2023-09-19T13:49:43;18.70;99.90
9437;DHT22;4757;59.334;18.034;2023-09-19T13:52:53;18.70;99.90
9437;DHT22;4757;59.334;18.034;2023-09-19T13:55:24;18.60;99.90
9437;DHT22;4757;59.334;18.034;2023-09-19T13:58:15;18.70;99.90
9437;DHT22;4757;59.334;18.034;2023-09-19T14:00:51;18.30;99.90
9437;DHT22;4757;59.334;18.034;2023-09-19T14:03:23;18.10;99.90
9437;DHT22;4757;59.334;18.034;2023-09-19T14:05:55;17.90;99.90
9437;DHT22;4757;59.334;18.034;2023-09-19T14:08:32;17.80;99.90
9437;DHT22;4757;59.334;18.034;2023-09-19T14:11:10;17.50;99.90
9437;DHT22;4757;59.334;18.034;2023-09-19T14:16:26;17.40;99.90
9437;DHT22;4757;59.334;18.034;2023-09-19T14:21:42;17.50;99.90
9437;DHT22;4757;59.334;18.034;2023-09-19T14:24:19;17.50;99.90
9437;DHT22;4757;59.334;18.034;2023-09-19T14:26:51;17.60;99.90
9437;DHT22;4757;59.334;18.034;2023-09-19T14:29:18;17.40;99.90
9437;DHT22;4757;59.334;18.034;2023-09-19T14:31:46;17.90;99.90
9437;DHT22;4757;59.334;18.034;2023-09-19T14:34:19;17.50;99.90
9437;DHT22;4757;59.334;18.034;2023-09-19T14:36:46;17.50;99.90
9437;DHT22;4757;59.334;18.034;2023-09-19T14:39:25;17.50;99.90
9437;DHT22;4757;59.334;18.034;2023-09-19T14:41:56;17.80;99.90
9437;DHT22;4757;59.334;18.034;2023-09-19T14:44:26;17.30;99.90
9437;DHT22;4757;59.334;18.034;2023-09-19T14:46:57;17.40;99.90
9437;DHT22;4757;59.334;18.034;2023-09-19T14:49:26;17.20;99.90
9437;DHT22;4757;59.334;18.034;2023-09-19T14:51:56;16.60;99.90
9437;DHT22;4757;59.334;18.034;2023-09-19T14:54:24;18.50;99.90
9437;DHT22;4757;59.334;18.034;2023-09-19T14:56:51;16.80;99.90
9437;DHT22;4757;59.334;18.034;2023-09-19T14:59:33;17.20;99.90
9437;DHT22;4757;59.334;18.034;2023-09-19T15:02:04;17.10;99.90
9437;DHT22;4757;59.334;18.034;2023-09-19T15:04:35;17.30;99.90
9437;DHT22;4757;59.334;18.034;2023-09-19T15:07:03;17.10;99.90
9437;DHT22;4757;59.334;18.034;2023-09-19T15:09:32;17.30;99.90
9437;DHT22;4757;59.334;18.034;2023-09-19T15:12:00;17.00;99.90
9437;DHT22;4757;59.334;18.034;2023-09-19T15:14:28;17.00;99.90
9437;DHT22;4757;59.334;18.034;2023-09-19T15:16:58;17.10;99.90
9437;DHT22;4757;59.334;18.034;2023-09-19T15:19:30;17.40;99.90
9437;DHT22;4757;59.334;18.034;2023-09-19T15:21:58;16.90;99.90
9437;DHT22;4757;59.334;18.034;2023-09-19T15:24:27;16.90;99.90
9437;DHT22;4757;59.334;18.034;2023-09-19T15:26:59;17.30;99.90
9437;DHT22;4757;59.334;18.034;2023-09-19T15:29:29;16.40;99.90
9437;DHT22;4757;59.334;18.034;2023-09-19T15:31:58;15.80;99.90
9437;DHT22;4757;59.334;18.034;2023-09-19T15:34:38;15.70;99.90
9437;DHT22;4757;59.334;18.034;2023-09-19T15:37:06;15.70;99.90
9437;DHT22;4757;59.334;18.034;2023-09-19T15:39:33;15.80;99.90
9437;DHT22;4757;59.334;18.034;2023-09-19T15:42:05;15.70;99.90
9437;DHT22;4757;59.334;18.034;2023-09-19T15:44:33;15.60;99.90
9437;DHT22;4757;59.334;18.034;2023-09-19T15:47:10;15.50;99.90
9437;DHT22;4757;59.334;18.034;2023-09-19T15:50:08;15.40;99.90
9437;DHT22;4757;59.334;18.034;2023-09-19T15:52:53;15.20;99.90
9437;DHT22;4757;59.334;18.034;2023-09-19T15:55:44;15.20;99.90
9437;DHT22;4757;59.334;18.034;2023-09-19T15:58:14;15.10;99.90
9437;DHT22;4757;59.334;18.034;2023-09-19T16:00:43;15.10;99.90
9437;DHT22;4757;59.334;18.034;2023-09-19T16:03:10;15.10;99.90
9437;DHT22;4757;59.334;18.034;2023-09-19T16:05:38;15.10;99.90
9437;DHT22;4757;59.334;18.034;2023-09-19T16:08:07;14.80;99.90
9437;DHT22;4757;59.334;18.034;2023-09-19T16:10:47;14.90;99.90
9437;DHT22;4757;59.334;18.034;2023-09-19T16:13:40;14.70;99.90
9437;DHT22;4757;59.334;18.034;2023-09-19T16:16:17;14.60;99.90
9437;DHT22;4757;59.334;18.034;2023-09-19T16:19:01;14.50;99.90
9437;DHT22;4757;59.334;18.034;2023-09-19T16:21:36;14.40;99.90
9437;DHT22;4757;59.334;18.034;2023-09-19T16:24:07;14.40;99.90
9437;DHT22;4757;59.334;18.034;2023-09-19T16:26:45;14.30;99.90
9437;DHT22;4757;59.334;18.034;2023-09-19T16:29:13;14.40;99.90
9437;DHT22;4757;59.334;18.034;2023-09-19T16:31:40;14.30;99.90
9437;DHT22;4757;59.334;18.034;2023-09-19T16:34:10;14.10;99.90
9437;DHT22;4757;59.334;18.034;2023-09-19T16:36:42;14.40;99.90
9437;DHT22;4757;59.334;18.034;2023-09-19T16:39:15;14.30;99.90
9437;DHT22;4757;59.334;18.034;2023-09-19T16:41:50;14.20;99.90
9437;DHT22;4757;59.334;18.034;2023-09-19T16:44:18;14.30;99.90
9437;DHT22;4757;59.334;18.034;2023-09-19T16:46:47;14.30;99.90
9437;DHT22;4757;59.334;18.034;2023-09-19T16:49:20;14.30;99.90
9437;DHT22;4757;59.334;18.034;2023-09-19T16:51:52;14.10;99.90
9437;DHT22;4757;59.334;18.034;2023-09-19T16:54:19;14.20;99.90
9437;DHT22;4757;59.334;18.034;2023-09-19T16:56:49;14.10;99.90
9437;DHT22;4757;59.334;18.034;2023-09-19T16:59:20;14.30;99.90
9437;DHT22;4757;59.334;18.034;2023-09-19T17:01:50;14.00;99.90
9437;DHT22;4757;59.334;18.034;2023-09-19T17:04:17;14.20;99.90
9437;DHT22;4757;59.334;18.034;2023-09-19T17:06:58;14.10;99.90
9437;DHT22;4757;59.334;18.034;2023-09-19T17:09:26;14.00;99.90
9437;DHT22;4757;59.334;18.034;2023-09-19T17:11:53;13.80;99.90
9437;DHT22;4757;59.334;18.034;2023-09-19T17:14:20;14.50;99.90
9437;DHT22;4757;59.334;18.034;2023-09-19T17:16:48;13.90;99.90
9437;DHT22;4757;59.334;18.034;2023-09-19T17:19:19;13.90;99.90
9437;DHT22;4757;59.334;18.034;2023-09-19T17:21:49;14.00;99.90
9437;DHT22;4757;59.334;18.034;2023-09-19T17:24:19;13.90;99.90
9437;DHT22;4757;59.334;18.034;2023-09-19T17:26:49;14.60;99.90